Date,TemperatureHighF,TemperatureAvgF,TemperatureLowF,DewpointHighF,DewpointAvgF,DewpointLowF,HumidityHigh,HumidityAvg,HumidityLow,PressureMaxIn,PressureMinIn,WindSpeedMaxMPH,WindSpeedAvgMPH,GustSpeedMaxMPH,PrecipitationSumIn
2012-1-1,35.0,23.9,14.0,19.8,13.5,5.1,98,67,29,30.76,30.34,25,5,25,0.00
2012-1-2,38.0,25.6,13.0,21.6,16.1,9.4,87,69,42,30.73,30.03,19,3,23,0.00
2012-1-3,61.0,49.2,31.0,25.1,22.2,17.5,69,36,21,30.31,29.91,43,10,43,0.00
2012-1-4,59.0,44.7,31.0,27.3,23.0,17.0,73,44,24,30.31,30.01,12,3,12,0.00
2012-1-5,70.0,53.5,38.0,28.7,25.4,21.4,60,36,18,30.04,29.67,32,6,34,0.00
2012-1-6,43.0,34.2,22.0,24.7,15.8,9.3,73,48,26,30.21,29.87,29,7,29,0.00
2012-1-7,36.0,27.0,21.0,20.8,15.5,12.6,82,63,38,30.27,30.12,14,3,14,0.00
2012-1-8,43.0,30.3,19.0,21.6,16.5,14.0,86,58,32,30.29,30.10,12,2,13,0.00
2012-1-9,60.0,44.3,32.0,32.2,26.8,21.6,72,52,30,30.17,29.96,17,4,17,0.00
2012-1-10,62.0,44.9,29.0,34.6,26.4,21.9,97,52,24,30.08,29.60,52,12,54,0.00
2012-1-11,29.0,17.5,6.0,28.0,5.3,-9.1,98,61,34,30.35,29.99,53,20,55,0.02
2012-1-12,31.0,20.1,2.0,24.3,5.4,-11.3,97,55,29,30.36,30.04,40,4,42,0.00
2012-1-13,28.0,24.2,22.0,19.3,17.6,16.0,82,76,66,30.09,30.06,9,1,9,0.00
2012-1-14,51.0,40.3,32.0,17.5,15.9,11.8,54,38,22,29.94,29.77,22,7,23,0.14
2012-1-15,59.0,35.5,20.0,22.3,13.8,5.9,76,42,15,30.03,29.53,39,11,40,0.00
2012-1-16,20.0,10.0,-2.0,15.8,9.7,-2.0,100,99,78,30.38,29.99,31,12,31,0.00
2012-1-17,31.0,12.7,-5.0,19.5,3.0,-5.0,100,72,25,30.41,29.89,38,4,38,0.00
2012-1-18,33.0,12.6,-6.0,11.8,1.5,-6.0,100,70,29,30.18,29.74,44,17,45,0.00
2012-1-19,16.0,2.7,-6.0,5.8,0.2,-6.0,100,90,62,30.18,29.87,23,6,29,0.00
2012-1-20,16.0,7.2,1.0,15.1,5.4,0.0,100,93,66,30.21,29.87,26,10,27,0.00
2012-1-21,56.0,34.1,12.0,38.7,26.3,11.5,100,77,38,29.97,29.28,32,10,33,0.00
2012-1-22,43.0,37.8,33.0,39.1,28.0,16.1,97,70,41,29.79,29.31,56,23,60,0.08
2012-1-23,43.0,29.9,18.0,16.1,11.6,8.0,83,48,26,29.98,29.80,9,2,9,0.00
2012-1-24,39.0,30.3,18.0,33.4,23.5,11.0,100,78,41,30.27,29.93,28,9,28,0.00
2012-1-25,60.0,37.9,19.0,36.5,20.8,7.2,92,53,23,30.19,29.67,48,8,49,0.00
2012-1-26,45.0,35.6,22.0,31.4,20.2,14.6,79,55,35,30.17,29.75,27,6,27,0.00
2012-1-27,40.0,29.9,16.0,32.8,16.4,1.6,100,58,37,30.31,29.75,43,16,43,0.00
2012-1-28,38.0,28.1,18.0,13.0,7.3,1.8,65,43,23,30.25,30.11,50,10,50,0.05
2012-1-29,61.0,40.9,20.0,27.2,20.8,10.8,68,47,27,30.21,29.73,30,7,31,0.00
2012-1-30,60.0,47.1,36.0,28.0,21.5,17.0,63,37,19,29.82,29.53,30,8,30,0.00
2012-1-31,52.0,38.2,28.0,27.1,20.4,14.8,79,52,25,30.11,29.81,27,6,27,0.00
2012-2-1,51.0,36.6,27.0,22.9,16.9,13.0,66,46,25,30.19,30.02,16,3,16,0.00
2012-2-2,47.0,35.4,20.0,28.2,20.6,12.7,84,56,30,30.30,30.07,35,11,35,0.00
2012-2-3,38.0,31.6,25.0,29.9,27.7,24.3,100,86,64,30.50,30.29,32,18,34,0.00
2012-2-4,43.0,29.3,18.0,34.1,22.9,18.0,100,80,44,30.55,30.35,13,2,13,0.00
2012-2-5,50.0,32.4,19.0,28.2,18.1,10.9,100,60,27,30.49,30.14,22,4,22,0.00
2012-2-6,41.0,27.9,20.0,25.6,18.9,11.2,100,72,37,30.53,30.12,50,16,51,0.00
2012-2-7,20.0,16.9,9.0,20.0,16.9,9.0,100,100,100,30.63,30.50,21,6,24,0.00
2012-2-8,22.0,14.7,6.0,22.0,14.7,6.0,100,100,100,30.49,30.25,10,3,13,0.00
2012-2-9,49.0,26.6,11.0,30.5,16.8,9.4,100,73,23,30.37,29.94,41,11,41,0.00
2012-2-10,14.0,7.9,-7.0,14.0,5.6,-7.4,100,91,58,30.75,30.35,18,6,19,0.00
2012-2-11,25.0,7.6,-10.0,12.0,2.9,-10.0,100,84,50,30.76,30.37,28,7,28,0.00
2012-2-12,38.0,20.2,7.0,17.5,13.3,7.0,100,78,41,30.37,29.81,26,7,26,0.00
2012-2-13,50.0,33.5,20.0,27.0,21.7,14.0,88,64,36,29.82,29.63,17,5,17,0.00
2012-2-14,50.0,35.6,23.0,32.9,24.1,18.9,100,65,35,29.95,29.64,21,7,21,0.00
2012-2-15,34.0,22.5,12.0,28.9,20.5,12.0,100,93,60,30.25,29.95,14,4,16,0.00
2012-2-16,29.0,21.2,17.0,15.8,13.3,11.2,93,72,49,30.27,30.09,10,1,10,0.00
2012-2-17,39.0,24.3,17.0,19.8,14.9,11.8,96,68,41,30.29,30.05,12,4,12,0.00
2012-2-18,49.0,30.6,15.0,29.2,18.4,14.6,100,66,27,30.26,29.79,29,7,29,0.00
2012-2-19,46.0,32.9,24.0,30.9,23.0,16.6,95,68,42,29.91,29.70,25,7,31,0.00
2012-2-20,43.0,32.0,23.0,30.2,20.4,9.6,99,66,27,29.93,29.73,35,15,37,0.00
2012-2-21,46.0,34.7,23.0,28.7,21.6,15.9,80,60,37,29.92,29.61,26,5,31,0.00
2012-2-22,47.0,39.0,33.0,36.9,30.7,25.9,94,74,45,29.67,29.36,25,6,28,0.08
2012-2-23,39.0,29.5,21.0,31.1,22.9,16.7,100,77,54,30.11,29.41,55,20,55,0.04
2012-2-24,34.0,23.3,13.0,28.8,20.0,11.6,100,88,62,30.30,30.09,38,7,38,0.00
2012-2-25,55.0,32.2,14.0,30.5,19.4,9.1,100,68,22,30.25,29.37,57,18,57,0.00
2012-2-26,37.0,25.9,7.0,25.2,16.1,6.0,100,68,43,30.45,29.52,32,13,38,0.00
2012-2-27,45.0,23.2,5.0,22.2,14.1,5.0,100,74,31,30.45,29.86,38,12,38,0.00
2012-2-28,24.0,19.4,14.0,22.3,18.6,14.0,100,97,84,30.08,29.78,31,15,31,0.00
2012-2-29,29.0,27.3,26.0,25.6,24.8,23.7,93,90,87,29.78,29.75,7,2,14,0.00
2012-3-1,44.0,37.6,26.0,29.5,14.8,-6.1,98,46,12,29.81,29.58,28,9,28,0.00
2012-3-2,35.0,28.5,17.0,16.3,10.5,5.7,89,48,31,30.10,29.86,44,16,49,0.01
2012-3-3,44.0,30.7,17.0,21.8,17.3,13.3,92,62,34,30.07,29.83,36,9,36,0.00
2012-3-4,46.0,36.3,27.0,35.2,28.3,24.6,94,74,49,30.16,29.75,30,12,30,0.00
2012-3-5,66.0,49.7,33.0,28.2,21.6,14.6,82,37,15,30.00,29.58,25,7,25,0.00
2012-3-6,68.0,50.7,37.0,33.3,25.1,18.5,71,40,16,29.67,29.32,48,14,49,0.00
2012-3-7,38.0,29.8,22.0,26.5,16.2,10.5,87,60,32,30.33,29.83,25,13,28,0.00
2012-3-8,55.0,40.8,23.0,16.9,12.4,5.8,77,35,15,30.45,30.20,20,6,22,0.00
2012-3-9,70.0,49.6,27.0,23.4,15.9,7.1,62,30,9,30.42,29.91,29,8,29,0.00
2012-3-10,74.0,53.4,36.0,20.8,16.2,4.2,41,25,9,29.99,29.61,26,6,26,0.00
2012-3-11,68.0,50.6,39.0,38.7,29.9,17.6,88,48,18,29.77,29.41,22,10,22,0.00
2012-3-12,61.0,50.6,37.0,28.9,22.0,19.4,56,33,24,29.91,29.51,41,9,41,0.00
2012-3-13,72.0,57.2,39.0,26.0,21.8,15.9,52,28,12,29.90,29.46,49,16,49,0.00
2012-3-14,62.0,49.0,36.0,26.3,20.7,10.1,58,34,21,30.02,29.57,30,9,30,0.00
2012-3-15,70.0,54.5,36.0,34.5,28.6,24.1,65,39,20,30.03,29.76,26,7,27,0.00
2012-3-16,77.0,59.5,40.0,34.6,28.2,22.6,64,34,14,29.89,29.46,38,12,38,0.00
2012-3-17,77.0,60.1,45.0,38.0,30.4,21.6,67,35,13,29.74,29.36,25,9,27,0.00
2012-3-18,76.0,61.4,45.0,31.8,26.0,16.2,46,28,11,29.52,29.13,41,10,41,0.00
2012-3-19,60.0,48.0,31.0,37.3,19.6,7.4,83,36,15,29.87,29.24,48,17,48,0.00
2012-3-20,57.0,40.6,22.0,26.2,19.8,9.0,99,50,18,30.05,29.76,33,9,33,0.00
2012-3-21,65.0,50.6,31.0,19.7,15.3,10.4,45,26,15,29.99,29.84,18,5,18,0.00
2012-3-22,64.0,53.1,33.0,47.6,27.9,12.7,76,39,17,30.06,29.79,22,7,22,0.00
2012-3-23,72.0,56.0,36.0,50.5,40.8,32.8,95,63,28,30.01,29.72,23,9,23,0.00
2012-3-24,59.0,52.4,41.0,38.6,33.0,30.3,76,49,36,30.17,29.83,36,16,36,0.00
2012-3-25,59.0,49.0,33.0,41.9,38.8,30.4,96,70,52,30.21,29.90,20,10,20,0.00
2012-3-26,57.0,43.6,39.0,43.2,35.5,19.7,90,77,24,29.99,29.45,46,10,46,0.33
2012-3-27,62.0,52.2,41.0,41.1,32.4,25.0,86,50,26,30.01,29.53,27,10,27,0.05
2012-3-28,74.0,54.6,36.0,33.1,26.6,22.3,64,37,16,30.06,29.59,21,7,21,0.00
2012-3-29,67.0,59.8,46.0,36.6,32.5,25.8,53,36,27,29.82,29.68,23,9,26,0.05
2012-3-30,75.0,62.6,40.0,33.2,28.1,24.4,68,29,18,29.79,29.52,26,8,27,0.00
2012-3-31,80.0,66.6,49.0,37.2,32.7,28.5,47,29,18,29.77,29.43,32,10,32,0.00
2012-4-1,84.0,66.4,48.0,39.0,30.2,21.6,54,30,11,29.54,29.22,54,16,55,0.00
2012-4-2,54.0,43.1,38.0,35.2,32.8,27.2,88,70,38,30.24,29.53,59,13,59,0.06
2012-4-3,55.0,43.0,32.0,32.4,20.8,14.5,74,44,23,30.30,30.10,22,7,22,0.00
2012-4-4,65.0,52.8,34.0,35.2,29.4,17.2,62,42,32,30.08,29.68,33,15,34,0.00
2012-4-5,73.0,55.5,41.0,47.0,40.4,31.5,91,61,32,29.85,29.64,37,18,37,0.00
2012-4-6,70.0,51.7,35.0,50.5,45.3,33.7,95,80,43,30.06,29.42,71,17,79,0.60
2012-4-7,54.0,42.1,31.0,35.4,21.2,13.3,96,47,21,30.33,30.05,22,6,23,0.00
2012-4-8,59.0,44.9,31.0,23.4,19.4,13.7,57,38,23,30.35,30.15,23,8,27,0.00
2012-4-9,57.0,43.1,30.0,24.7,20.2,14.9,61,41,26,30.38,30.12,19,6,23,0.00
2012-4-10,55.0,40.0,24.0,27.0,20.6,15.8,75,47,33,30.35,30.09,21,4,21,0.00
2012-4-11,63.0,45.2,30.0,39.5,28.3,17.0,63,52,38,30.30,29.83,36,14,36,0.00
2012-4-12,72.0,56.8,46.0,47.0,36.1,23.2,91,54,17,29.85,29.46,41,19,45,0.00
2012-4-13,62.0,52.1,43.0,39.9,33.7,27.7,81,52,29,29.80,29.62,32,10,32,0.00
2012-4-14,52.0,43.7,41.0,47.6,40.1,33.3,93,87,63,29.83,29.65,40,16,40,0.46
2012-4-15,50.0,42.5,38.0,42.3,36.2,28.4,95,80,56,30.01,29.65,56,26,56,0.35
2012-4-16,49.0,41.0,30.0,32.0,29.1,24.4,88,64,45,30.17,30.01,25,7,38,0.00
2012-4-17,69.0,48.9,34.0,44.8,35.3,29.1,91,63,25,30.14,29.74,46,11,47,0.02
2012-4-18,62.0,49.0,37.0,46.5,36.3,27.7,92,63,40,30.13,29.72,26,9,26,0.00
2012-4-19,56.0,45.9,40.0,47.2,40.5,34.5,95,82,53,30.03,29.86,32,12,34,0.06
2012-4-20,64.0,52.4,34.0,41.6,34.1,30.2,96,53,30,30.17,29.81,38,6,38,0.00
2012-4-21,63.0,54.5,42.0,43.7,34.8,26.1,76,49,31,30.28,29.87,39,16,40,0.00
2012-4-22,50.0,38.6,32.0,33.1,28.8,26.6,90,68,48,30.37,30.27,20,3,20,0.00
2012-4-23,84.0,70.7,42.0,46.1,35.8,29.0,77,31,15,30.15,29.69,20,6,22,0.00
2012-4-24,86.0,72.6,58.0,46.8,38.9,31.7,49,31,18,29.78,29.46,55,7,56,0.06
2012-4-25,78.0,66.5,57.0,46.8,40.3,33.7,57,40,22,29.94,29.64,34,11,35,0.00
2012-4-26,57.0,49.1,42.0,45.2,42.8,38.0,91,80,52,30.05,29.94,10,3,10,0.00
2012-4-27,57.0,48.0,40.0,52.9,42.7,37.9,93,83,66,29.85,29.49,25,11,25,0.89
2012-4-28,52.0,44.1,36.0,40.1,32.9,26.8,94,67,45,30.01,29.80,29,9,30,0.00
2012-4-29,59.0,46.4,36.0,39.1,35.2,26.8,93,68,34,30.07,29.89,28,10,28,0.00
2012-4-30,72.0,55.7,35.0,41.8,33.8,26.7,90,48,19,30.07,29.49,31,10,31,0.00
2012-5-1,71.0,60.8,50.0,49.4,41.1,29.6,60,48,38,29.59,29.50,23,8,25,0.00
2012-5-2,73.0,58.8,42.0,48.5,44.7,39.6,92,63,35,29.81,29.53,22,7,22,0.01
2012-5-3,65.0,56.7,45.0,53.2,44.3,39.5,89,65,45,29.96,29.80,23,7,26,0.01
2012-5-4,73.0,62.2,50.0,58.1,52.0,46.0,91,71,45,29.93,29.75,29,7,29,0.07
2012-5-5,63.0,56.3,50.0,55.5,49.6,42.7,91,79,65,30.04,29.85,33,10,33,0.39
2012-5-6,64.0,53.8,41.0,39.8,29.5,21.9,88,42,24,30.28,30.04,22,11,22,0.00
2012-5-7,63.0,49.4,35.0,32.1,26.9,23.0,81,44,24,30.32,30.02,38,12,38,0.00
2012-5-8,62.0,48.1,36.0,35.2,29.3,23.8,73,50,31,30.25,30.00,26,8,26,0.00
2012-5-9,74.0,52.4,36.0,45.9,37.3,32.4,91,61,27,30.17,29.70,13,6,19,0.00
2012-5-10,79.0,61.1,48.0,48.0,38.7,25.7,60,44,28,30.06,29.51,60,18,60,0.00
2012-5-11,58.0,48.3,38.0,31.7,22.8,14.7,59,37,24,30.35,30.05,35,13,44,0.00
2012-5-12,64.0,49.8,31.0,32.9,27.7,21.4,79,45,25,30.41,30.13,24,6,25,0.00
2012-5-13,76.0,59.2,40.0,40.2,31.3,26.2,65,39,18,30.31,29.99,18,3,18,0.00
2012-5-14,84.0,72.2,51.0,37.1,29.8,20.9,46,22,13,30.12,29.82,20,8,20,0.00
2012-5-15,73.0,63.6,49.0,35.8,30.7,23.4,49,30,19,30.19,29.97,22,9,22,0.00
2012-5-16,88.0,71.2,50.0,41.2,36.3,29.5,51,30,13,30.09,29.49,39,19,39,0.00
2012-5-17,82.0,71.0,59.0,47.5,39.4,31.8,49,32,21,29.65,29.53,33,10,33,0.00
2012-5-18,76.0,66.4,55.0,53.8,48.6,42.1,74,54,34,29.65,29.49,30,9,31,0.00
2012-5-19,61.0,54.5,44.0,50.2,40.9,34.1,90,62,39,30.17,29.75,43,21,43,0.28
2012-5-20,70.0,55.4,38.0,44.7,38.7,33.3,88,56,32,30.26,29.98,25,8,28,0.00
2012-5-21,87.0,67.1,49.0,53.0,45.8,36.2,90,52,19,30.12,29.70,23,10,24,0.00
2012-5-22,88.0,64.0,54.0,53.6,45.6,33.8,78,54,15,29.83,29.33,23,12,23,0.00
2012-5-23,62.0,55.8,46.0,49.0,42.4,36.4,89,62,46,29.70,29.57,29,6,29,0.03
2012-5-24,55.0,48.2,41.0,46.5,42.8,35.3,92,82,48,29.93,29.59,29,9,29,0.33
2012-5-25,48.0,44.6,37.0,45.2,40.7,34.1,93,86,74,30.05,29.93,23,9,23,0.06
2012-5-26,50.0,47.9,46.0,46.3,41.0,36.4,87,77,67,29.99,29.61,27,12,27,0.19
2012-5-27,72.0,58.0,44.0,52.8,36.8,26.9,91,50,22,29.79,29.57,47,11,50,0.01
2012-5-28,65.0,54.5,44.0,44.9,36.4,27.7,89,54,28,29.99,29.78,42,12,44,0.04
2012-5-29,68.0,57.0,39.0,44.7,39.4,31.4,81,53,40,30.13,29.90,19,6,20,0.00
2012-5-30,63.0,51.5,42.0,47.6,42.4,35.2,90,72,37,30.09,29.89,45,12,48,0.00
2012-5-31,66.0,52.9,42.0,49.8,43.8,33.6,90,72,47,30.14,29.91,19,7,20,0.00
2012-6-1,73.0,62.1,50.0,53.0,44.6,37.2,89,57,30,29.96,29.75,35,11,38,0.01
2012-6-2,85.0,68.1,48.0,58.4,47.1,41.0,87,51,24,29.95,29.51,37,10,37,0.02
2012-6-3,80.0,70.8,59.0,55.5,51.0,46.4,86,51,35,29.95,29.68,29,10,29,0.00
2012-6-4,89.0,72.6,57.0,60.1,53.6,48.1,78,54,29,29.99,29.67,28,9,28,0.00
2012-6-5,90.0,79.5,61.0,56.7,50.7,43.2,83,41,21,29.85,29.53,46,20,46,0.10
2012-6-6,85.0,73.2,63.0,56.3,46.7,31.2,78,45,15,29.93,29.66,39,14,40,0.08
2012-6-7,74.0,60.6,51.0,59.5,52.0,40.4,89,74,58,30.06,29.82,31,9,31,0.77
2012-6-8,86.0,67.9,49.0,63.3,53.7,38.9,90,63,30,30.01,29.47,31,9,31,0.00
2012-6-9,80.0,69.3,51.0,62.3,52.7,42.1,88,59,32,29.76,29.41,71,17,72,0.28
2012-6-10,73.0,60.5,52.0,48.0,38.9,22.6,86,52,16,29.84,29.59,43,14,43,0.00
2012-6-11,71.0,63.6,51.0,47.8,44.0,41.2,80,50,37,30.19,29.96,25,12,30,0.00
2012-6-12,77.0,60.9,47.0,51.9,47.2,40.6,90,64,29,30.21,29.76,29,8,44,0.00
2012-6-13,88.0,67.7,46.0,52.6,46.0,38.4,90,53,18,30.00,29.43,45,10,45,0.00
2012-6-14,79.0,68.6,55.0,48.0,43.4,38.8,64,42,27,29.98,29.61,34,12,34,0.00
2012-6-15,87.0,67.9,53.0,58.1,49.6,39.1,88,54,28,30.00,29.61,31,8,31,0.08
2012-6-16,83.0,68.2,55.0,56.1,44.4,35.8,87,45,22,30.13,29.78,32,10,34,0.00
2012-6-17,92.0,76.3,58.0,56.4,44.9,33.7,70,38,14,29.85,29.33,33,10,33,0.00
2012-6-18,89.0,73.1,56.0,54.0,48.7,42.8,71,44,21,29.64,29.29,43,9,47,0.00
2012-6-19,75.0,65.9,55.0,57.4,52.3,44.4,88,63,44,29.85,29.51,34,16,34,0.23
2012-6-20,70.0,59.8,51.0,55.5,45.1,38.1,87,60,34,30.02,29.83,31,10,32,0.30
2012-6-21,80.0,68.4,47.0,50.5,45.4,40.6,86,47,27,30.21,29.84,30,9,30,0.00
2012-6-22,89.0,69.8,52.0,62.5,52.9,35.4,89,59,15,30.00,29.44,40,8,41,0.18
2012-6-23,88.0,74.3,64.0,66.7,61.4,53.9,86,65,44,29.81,29.58,42,11,42,0.00
2012-6-24,84.0,73.2,62.0,69.8,62.6,44.1,87,71,45,29.95,29.81,26,7,26,0.00
2012-6-25,88.0,74.1,66.0,72.2,62.4,48.7,87,68,33,29.94,29.59,26,8,26,0.01
2012-6-26,104.0,84.6,67.0,68.1,56.6,37.7,86,50,11,29.76,29.33,32,12,35,0.00
2012-6-27,84.0,74.1,62.0,51.2,40.9,27.1,57,32,13,29.95,29.51,30,13,30,0.00
2012-6-28,91.0,74.2,58.0,54.5,50.0,42.0,61,44,24,30.03,29.74,13,4,14,0.00
2012-6-29,92.0,77.5,62.0,65.9,57.3,46.9,88,54,23,29.86,29.64,36,10,36,0.00
2012-6-30,91.0,75.5,63.0,66.8,57.4,46.1,87,56,30,29.89,29.67,35,10,35,0.00
2012-7-1,93.0,73.9,59.0,63.8,55.0,42.5,89,57,22,29.95,29.59,25,7,25,0.00
2012-7-2,87.0,81.3,75.0,60.1,53.8,45.8,49,39,27,29.75,29.63,36,16,37,0.00
2012-7-3,99.0,83.6,62.0,64.4,54.0,38.1,85,42,14,29.85,29.47,29,10,31,0.00
2012-7-4,87.0,77.9,66.0,58.3,43.6,31.4,58,32,15,29.93,29.55,51,16,51,0.00
2012-7-5,90.0,74.3,64.0,68.7,57.1,40.5,87,57,37,29.97,29.68,39,8,39,0.45
2012-7-6,75.0,68.2,63.0,66.2,60.2,47.0,88,76,52,30.15,29.79,38,17,38,0.02
2012-7-7,71.0,65.0,59.0,62.3,57.7,43.3,90,78,54,30.27,30.16,14,4,14,0.00
2012-7-8,81.0,70.0,63.0,63.3,58.2,52.4,88,68,40,30.23,30.05,16,2,16,0.00
2012-7-9,85.0,72.7,59.0,63.5,54.0,45.3,89,57,25,30.23,30.01,23,5,23,0.00
2012-7-10,90.0,75.6,60.0,59.0,48.6,41.4,72,42,19,30.16,29.85,28,11,28,0.00
2012-7-11,96.0,80.1,65.0,60.9,50.4,42.2,80,39,18,29.99,29.69,29,13,30,0.09
2012-7-12,72.0,67.0,65.0,61.0,55.7,52.2,83,67,55,30.00,29.92,26,6,26,0.02
2012-7-13,94.0,83.9,63.0,59.8,50.2,41.9,75,34,20,30.03,29.79,19,4,20,0.00
2012-7-14,98.0,82.5,65.0,57.3,50.8,45.5,65,37,18,30.01,29.66,37,10,38,0.01
2012-7-15,98.0,83.8,70.0,59.8,50.8,36.5,66,36,13,29.85,29.54,33,14,34,0.00
2012-7-16,99.0,86.5,70.0,65.5,53.2,45.0,80,36,17,29.85,29.51,43,12,44,0.00
2012-7-17,87.0,73.0,66.0,68.6,63.9,54.1,88,75,41,29.95,29.72,26,11,27,0.01
2012-7-18,93.0,78.5,64.0,66.3,57.0,48.9,88,53,23,29.96,29.72,26,6,28,0.50
2012-7-19,103.0,85.2,64.0,56.9,51.2,43.1,70,36,14,29.96,29.66,28,8,29,0.00
2012-7-20,98.0,81.3,69.0,66.6,55.7,47.5,86,46,21,30.07,29.74,31,12,31,0.35
2012-7-21,92.0,74.3,64.0,70.8,64.7,57.7,87,74,34,30.11,29.80,43,10,43,0.64
2012-7-22,94.0,82.6,65.0,63.2,57.2,52.2,85,45,26,30.03,29.79,25,5,25,0.02
2012-7-23,96.0,81.2,68.0,67.4,59.1,53.7,84,50,26,29.98,29.67,40,7,41,0.01
2012-7-24,95.0,76.9,66.0,68.4,62.7,50.9,86,64,24,29.88,29.56,24,11,25,0.07
2012-7-25,85.0,70.1,60.0,67.9,60.2,49.0,87,73,35,29.95,29.75,33,11,33,0.83
2012-7-26,86.0,71.9,59.0,57.8,52.7,46.7,86,55,29,30.11,29.86,28,7,28,0.00
2012-7-27,93.0,71.4,55.0,61.7,54.2,48.2,88,60,24,30.13,29.71,30,10,30,0.00
2012-7-28,91.0,75.5,59.0,61.1,55.7,50.7,88,55,27,29.99,29.81,17,3,17,0.00
2012-7-29,86.0,76.7,68.0,59.6,55.1,50.2,71,49,31,30.00,29.85,22,8,23,0.00
2012-7-30,92.0,76.8,65.0,57.5,53.5,49.3,64,46,25,30.04,29.82,28,8,28,0.00
2012-7-31,97.0,78.6,61.0,60.1,52.6,41.8,84,44,17,29.99,29.70,38,8,38,0.00
2012-8-1,92.0,76.4,65.0,62.8,54.5,48.4,73,48,27,30.01,29.70,32,9,32,0.00
2012-8-2,88.0,72.4,58.0,57.6,52.2,41.9,86,54,22,30.03,29.62,46,8,46,0.00
2012-8-3,79.0,65.6,55.0,60.9,53.1,41.3,88,65,45,30.09,29.69,53,15,53,0.01
2012-8-4,76.0,63.4,48.0,49.9,44.6,40.2,88,55,30,30.25,29.99,34,11,35,0.01
2012-8-5,95.0,72.0,51.0,50.0,46.6,33.7,86,47,12,30.25,29.77,31,12,40,0.00
2012-8-6,95.0,78.9,62.0,53.3,46.8,38.6,59,35,15,30.03,29.81,20,6,20,0.00
2012-8-7,91.0,78.7,65.0,57.8,50.0,44.0,60,38,22,30.02,29.83,22,6,23,0.00
2012-8-8,85.0,74.7,63.0,56.7,47.8,37.7,64,39,27,30.16,29.93,35,12,35,0.00
2012-8-9,86.0,70.8,56.0,56.3,50.6,44.3,84,52,29,30.19,29.93,23,7,23,0.00
2012-8-10,91.0,72.1,56.0,63.0,51.5,44.4,83,53,21,30.13,29.78,30,8,31,0.01
2012-8-11,79.0,67.3,61.0,63.2,59.5,55.6,87,77,50,30.01,29.77,44,11,46,0.20
2012-8-12,79.0,69.2,58.0,59.6,54.0,47.4,87,61,34,30.17,29.96,34,13,35,0.01
2012-8-13,82.0,68.7,56.0,57.1,50.6,45.5,87,57,29,30.19,29.85,52,10,52,0.00
2012-8-14,88.0,71.7,55.0,56.1,52.5,48.3,88,55,29,30.03,29.63,21,6,28,0.00
2012-8-15,71.0,66.4,61.0,54.1,49.9,42.7,70,56,36,30.00,29.72,49,20,49,0.00
2012-8-16,73.0,62.8,48.0,49.6,42.9,39.0,88,50,33,30.28,30.05,23,5,23,0.00
2012-8-17,76.0,58.4,47.0,48.5,43.3,34.2,86,61,32,30.19,29.93,25,8,26,0.00
2012-8-18,78.0,66.3,53.0,39.8,36.3,32.1,56,34,20,30.16,29.95,32,11,32,0.00
2012-8-19,81.0,66.9,49.0,42.3,38.9,36.2,68,39,21,30.18,29.88,20,4,22,0.00
2012-8-20,84.0,68.0,52.0,43.8,39.1,35.2,59,37,19,30.07,29.80,17,4,19,0.00
2012-8-21,89.0,71.8,53.0,47.5,42.0,37.0,68,38,17,30.03,29.76,26,4,26,0.00
2012-8-22,90.0,73.4,58.0,55.0,47.2,42.4,71,43,20,29.92,29.63,23,5,24,0.00
2012-8-23,91.0,77.9,62.0,51.5,44.9,38.3,59,34,18,29.89,29.65,25,7,26,0.00
2012-8-24,96.0,79.8,62.0,59.6,48.9,36.3,77,37,16,29.82,29.46,38,14,40,0.00
2012-8-25,78.0,67.1,57.0,36.3,33.3,29.5,41,29,18,30.03,29.82,38,13,39,0.00
2012-8-26,86.0,70.7,55.0,49.1,41.1,33.5,52,35,24,30.05,29.87,26,6,29,0.00
2012-8-27,96.0,76.4,59.0,56.6,48.6,41.3,67,41,18,30.08,29.73,29,6,29,0.00
2012-8-28,96.0,81.5,67.0,51.9,45.3,40.3,47,30,16,29.95,29.71,21,5,21,0.00
2012-8-29,102.0,83.5,66.0,50.2,44.9,36.0,49,29,12,29.89,29.51,26,7,29,0.00
2012-8-30,86.0,75.7,67.0,43.4,39.3,34.9,37,27,19,29.98,29.64,35,14,35,0.00
2012-8-31,88.0,72.6,61.0,49.2,44.4,37.0,53,37,22,30.06,29.75,16,4,16,0.00
2012-9-1,95.0,82.0,71.0,53.4,43.1,36.6,45,26,18,29.87,29.61,28,14,28,0.00
2012-9-2,87.0,79.4,71.0,46.6,44.2,42.3,39,29,23,29.88,29.73,22,15,22,0.00
2012-9-3,77.0,64.2,60.0,44.5,30.3,26.8,55,29,18,29.98,29.84,11,4,11,0.00
2012-9-4,90.0,71.8,54.0,38.6,29.1,21.4,41,23,9,30.06,29.64,40,13,40,0.00
2012-9-5,80.0,63.2,46.0,38.3,35.2,30.5,69,38,17,30.19,29.78,26,10,27,0.00
2012-9-6,79.0,64.3,51.0,52.2,37.5,32.9,87,40,21,30.15,29.81,38,14,38,0.03
2012-9-7,72.0,60.1,49.0,51.9,42.3,33.4,88,56,26,30.30,30.10,34,10,34,0.00
2012-9-8,81.0,65.2,48.0,41.7,35.7,29.0,61,37,16,30.30,29.99,32,10,37,0.00
2012-9-9,89.0,67.6,47.0,42.6,35.3,29.1,63,35,12,30.27,29.72,36,14,36,0.00
2012-9-10,94.0,73.5,58.0,46.8,33.4,26.2,43,25,10,29.83,29.52,51,10,51,0.04
2012-9-11,76.0,68.4,61.0,46.8,34.0,25.9,46,29,19,30.08,29.61,40,16,41,0.00
2012-9-12,71.0,59.2,48.0,42.9,30.2,25.0,70,35,22,30.37,30.08,17,7,22,0.00
2012-9-13,77.0,61.2,44.0,48.2,34.6,23.8,87,44,15,30.39,30.15,18,4,29,0.00
2012-9-14,80.0,64.5,44.0,34.6,29.9,25.6,53,29,15,30.43,30.01,29,11,29,0.00
2012-9-15,89.0,73.1,53.0,35.0,29.2,22.4,42,22,10,30.09,29.81,20,7,20,0.00
2012-9-16,72.0,63.2,54.0,41.3,32.9,24.8,49,32,24,30.07,29.89,37,15,37,0.00
2012-9-17,67.0,55.9,44.0,43.8,35.1,28.2,86,48,32,30.24,30.05,24,6,24,0.00
2012-9-18,81.0,63.6,44.0,36.3,33.3,29.3,65,36,16,30.15,29.75,29,8,29,0.00
2012-9-19,73.0,65.3,55.0,37.2,30.8,26.8,38,28,20,30.10,29.81,38,19,38,0.00
2012-9-20,75.0,58.9,46.0,34.5,31.6,27.3,52,37,22,30.16,29.85,23,6,23,0.00
2012-9-21,77.0,61.4,45.0,37.8,34.2,27.5,62,38,24,30.22,29.87,41,13,41,0.00
2012-9-22,68.0,53.3,39.0,33.7,30.2,26.5,64,43,28,30.33,30.11,19,4,19,0.00
2012-9-23,68.0,52.2,35.0,34.6,29.5,24.4,74,44,28,30.29,30.05,17,4,17,0.00
2012-9-24,76.0,60.1,47.0,37.9,33.2,28.0,53,38,23,30.13,29.81,16,6,16,0.00
2012-9-25,77.0,61.9,50.0,34.1,30.3,26.9,44,32,19,30.03,29.81,10,3,10,0.00
2012-9-26,79.0,63.3,48.0,38.9,34.4,29.3,50,36,20,30.11,29.90,29,7,29,0.00
2012-9-27,77.0,63.9,50.0,50.5,40.1,32.8,69,44,22,30.15,29.96,28,10,28,0.00
2012-9-28,76.0,60.6,46.0,50.2,43.1,38.0,86,55,30,30.21,29.93,27,9,27,0.00
2012-9-29,82.0,66.2,52.0,51.2,44.7,35.4,85,50,20,30.06,29.76,30,14,30,0.00
2012-9-30,79.0,66.8,54.0,52.4,40.7,36.7,79,40,24,30.15,29.89,30,11,32,0.00
2012-10-1,68.0,55.6,47.0,49.3,39.0,29.9,89,58,28,30.33,30.03,34,10,34,0.00
2012-10-2,84.0,65.1,46.0,38.3,32.3,28.2,57,32,16,30.03,29.62,28,8,28,0.00
2012-10-3,58.0,48.0,36.0,41.8,34.8,29.2,90,62,41,30.37,29.77,57,24,57,0.00
2012-10-4,47.0,38.1,29.0,33.6,27.1,22.4,96,67,43,30.48,30.31,31,10,31,0.00
2012-10-5,46.0,36.3,31.0,30.7,25.3,20.6,89,66,40,30.45,30.33,18,3,24,0.00
2012-10-6,44.0,32.8,22.0,28.7,23.8,17.2,95,71,44,30.50,30.29,18,4,18,0.00
2012-10-7,60.0,43.5,21.0,30.3,23.5,15.4,83,48,26,30.34,29.89,22,5,22,0.00
2012-10-8,60.0,51.0,42.0,42.5,34.0,24.2,89,55,29,30.00,29.78,30,12,30,0.00
2012-10-9,47.0,39.9,31.0,39.1,29.1,21.8,91,66,38,30.24,29.99,40,12,40,0.00
2012-10-10,73.0,50.5,28.0,31.9,27.8,24.4,90,47,19,30.25,29.73,32,6,34,0.00
2012-10-11,51.0,40.0,32.0,35.9,31.9,29.0,92,74,48,30.38,29.97,32,10,35,0.00
2012-10-12,71.0,50.4,31.0,36.6,31.4,26.5,92,53,27,30.35,29.65,48,21,48,0.00
2012-10-13,68.0,59.4,52.0,38.6,34.5,29.4,54,40,26,29.77,29.67,29,10,29,0.00
2012-10-14,69.0,56.3,46.0,39.0,34.3,27.5,71,46,25,30.10,29.91,20,8,20,0.00
2012-10-15,77.0,60.6,46.0,39.5,31.4,27.6,53,35,18,30.04,29.63,31,7,31,0.00
2012-10-16,69.0,57.0,45.0,51.2,39.8,35.4,88,55,30,29.82,29.32,29,10,29,0.15
2012-10-17,51.0,45.9,39.0,40.4,23.3,17.0,72,41,28,29.93,29.61,55,20,55,0.30
2012-10-18,54.0,45.1,37.0,25.7,16.4,6.2,44,32,22,30.11,29.82,61,24,63,0.64
2012-10-19,62.0,46.2,30.0,26.9,18.4,6.2,48,34,24,30.15,29.72,16,4,16,0.00
2012-10-20,79.0,61.3,46.0,37.6,29.3,25.1,51,32,18,29.76,29.39,34,10,39,0.00
2012-10-21,58.0,50.7,45.0,43.1,36.9,31.1,78,60,41,30.06,29.65,41,15,42,0.00
2012-10-22,48.0,43.2,37.0,41.8,38.2,28.8,90,82,70,30.06,29.81,15,6,15,0.00
2012-10-23,65.0,47.3,36.0,48.6,39.0,26.3,91,74,39,29.97,29.61,40,12,40,0.00
2012-10-24,42.0,34.7,30.0,31.7,27.9,22.0,99,78,60,30.21,29.97,23,11,23,0.16
2012-10-25,31.0,26.2,19.0,30.2,25.9,19.0,100,99,89,30.50,30.21,19,7,19,0.00
2012-10-26,40.0,27.6,21.0,28.6,24.3,20.0,100,89,57,30.56,30.31,16,6,16,0.00
2012-10-27,46.0,31.6,22.0,32.7,25.1,21.3,100,80,42,30.32,30.09,16,3,16,0.00
2012-10-28,52.0,37.7,24.0,36.6,29.2,22.3,99,73,43,30.23,29.91,20,4,20,0.00
2012-10-29,65.0,52.4,40.0,43.3,38.0,32.9,78,59,39,30.05,29.86,15,5,15,0.00
2012-10-30,66.0,54.3,42.0,42.6,38.8,34.5,89,57,38,30.11,29.94,14,5,14,0.00
2012-10-31,72.0,55.6,41.0,39.8,34.3,28.7,86,48,24,30.10,29.88,28,8,29,0.00
2012-11-1,47.0,38.9,32.0,43.4,29.7,22.4,94,70,47,30.16,29.86,12,6,12,0.00
2012-11-2,57.0,41.0,31.0,45.7,32.8,13.8,96,73,30,30.23,29.95,23,5,23,0.00
2012-11-3,54.0,36.3,24.0,41.7,30.0,16.6,99,79,47,30.31,30.07,12,2,13,0.00
2012-11-4,59.0,41.5,32.0,40.8,34.0,26.2,96,77,46,30.31,30.02,42,6,45,0.00
2012-11-5,62.0,44.9,28.0,44.3,35.5,27.3,99,73,44,30.36,29.91,37,4,38,0.00
2012-11-6,58.0,45.0,35.0,43.5,29.3,22.9,95,59,28,30.29,30.05,22,7,22,0.00
2012-11-7,76.0,52.4,33.0,36.0,29.9,23.5,72,46,18,30.14,29.63,25,6,28,0.00
2012-11-8,54.0,43.0,29.0,35.8,29.6,22.7,97,61,37,30.10,29.77,44,13,46,0.00
2012-11-9,34.0,31.2,29.0,28.0,24.2,19.1,85,75,66,30.06,29.79,15,6,16,0.02
2012-11-10,32.0,24.5,8.0,28.0,20.8,8.0,100,86,67,30.14,29.75,47,14,47,0.00
2012-11-11,25.0,15.2,4.0,18.8,9.9,4.0,100,81,51,30.23,30.06,21,3,22,0.00
2012-11-12,37.0,24.4,12.0,26.9,15.8,6.7,89,70,48,30.33,30.19,13,2,14,0.00
2012-11-13,49.0,35.7,25.0,32.8,25.3,17.8,90,67,41,30.30,30.12,12,4,12,0.00
2012-11-14,51.0,38.1,25.0,33.5,27.9,21.7,93,68,37,30.28,30.01,13,3,13,0.00
2012-11-15,47.0,37.1,28.0,31.7,28.0,22.6,97,71,50,30.42,30.21,19,6,20,0.00
2012-11-16,63.0,44.2,27.0,34.5,27.9,22.0,98,59,26,30.30,29.87,27,9,27,0.00
2012-11-17,60.0,46.7,35.0,32.0,27.5,23.5,73,49,29,30.06,29.91,19,4,19,0.00
2012-11-18,66.0,48.1,33.0,38.6,31.9,25.6,91,56,30,30.05,29.67,34,10,36,0.00
2012-11-19,56.0,42.7,33.0,34.1,28.6,20.6,85,59,37,30.20,29.99,21,6,24,0.00
2012-11-20,68.0,50.3,35.0,36.8,31.2,28.2,79,51,25,30.13,29.84,17,4,17,0.00
2012-11-21,66.0,55.7,44.0,34.9,28.4,25.4,61,36,24,29.94,29.61,42,10,42,0.00
2012-11-22,52.0,37.0,18.0,38.0,25.1,13.7,91,65,30,30.59,29.76,47,13,47,0.00
2012-11-23,37.0,24.2,11.0,22.4,18.0,11.0,100,79,51,30.63,30.13,15,3,15,0.00
2012-11-24,61.0,44.6,27.0,34.7,24.2,16.9,76,47,20,30.13,29.78,31,8,31,0.00
2012-11-25,41.0,32.3,27.0,36.3,26.4,17.9,96,79,64,30.27,30.00,13,4,13,0.03
2012-11-26,30.0,23.6,20.0,30.0,21.5,16.6,100,92,71,30.47,30.25,19,6,19,0.02
2012-11-27,38.0,26.8,15.0,26.7,19.9,14.6,100,76,50,30.31,30.14,12,2,13,0.02
2012-11-28,50.0,34.9,22.0,34.7,22.5,14.3,80,61,38,30.29,29.96,10,1,10,0.00
2012-11-29,49.0,36.9,29.0,34.0,26.7,14.6,93,67,41,30.08,29.85,23,4,23,0.00
2012-11-30,61.0,47.3,32.0,36.3,32.6,28.5,93,59,32,30.07,29.61,38,12,38,0.00
2012-12-1,63.0,50.5,39.0,36.5,33.0,30.1,75,52,33,29.90,29.67,18,4,27,0.00
2012-12-2,63.0,52.0,39.0,33.3,30.0,26.8,72,44,27,29.90,29.32,50,15,50,0.01
2012-12-3,63.0,46.1,32.0,39.3,21.7,13.3,69,40,21,30.15,29.32,56,12,56,0.14
2012-12-4,52.0,39.8,31.0,22.6,19.0,15.3,58,44,26,30.28,30.03,23,6,23,0.00
2012-12-5,64.0,48.8,36.0,42.7,31.6,21.4,76,53,32,30.06,29.59,36,8,38,0.00
2012-12-6,42.0,37.1,28.0,30.8,21.0,11.5,95,54,30,30.11,29.94,35,8,35,0.00
2012-12-7,33.0,26.9,19.0,31.0,22.4,17.6,100,84,68,30.07,29.93,18,4,18,0.02
2012-12-8,39.0,25.6,11.0,29.6,21.8,6.3,100,86,62,30.14,29.67,43,11,43,0.01
2012-12-9,14.0,6.6,-3.0,8.8,3.2,-3.0,100,86,60,30.45,30.13,41,15,41,0.00
2012-12-10,36.0,21.6,5.0,25.2,14.2,5.0,100,75,46,30.14,29.83,28,5,28,0.00
2012-12-11,41.0,30.1,17.0,21.6,16.1,10.1,96,60,30,30.03,29.69,25,9,25,0.00
2012-12-12,55.0,42.2,27.0,26.4,21.9,17.9,74,47,26,29.83,29.56,37,10,37,0.00
2012-12-13,45.0,29.8,15.0,30.7,22.5,15.0,100,76,41,30.15,29.83,20,7,28,0.00
2012-12-14,51.0,34.6,24.0,27.5,23.2,18.2,98,66,35,29.93,29.60,17,4,17,0.00
2012-12-15,40.0,33.1,24.0,24.2,17.7,9.4,91,56,30,29.84,29.70,29,13,31,0.00
2012-12-16,44.0,28.3,19.0,24.2,19.0,14.0,100,69,31,29.89,29.58,23,8,23,0.00
2012-12-17,41.0,28.6,18.0,33.2,19.8,11.2,88,70,46,29.86,29.45,18,3,18,0.00
2012-12-18,42.0,32.8,19.0,29.4,13.2,1.1,92,47,19,29.94,29.56,29,7,31,0.00
2012-12-19,31.0,24.4,13.0,14.8,7.5,2.4,73,49,34,30.25,29.92,32,6,32,0.00
2012-12-20,44.0,26.8,10.0,9.9,5.4,0.4,69,42,21,30.27,30.02,14,2,14,0.00
2012-12-21,56.0,40.0,28.0,17.2,9.1,1.2,43,29,17,30.13,29.88,13,3,13,0.00
2012-12-22,43.0,27.8,13.0,18.0,12.0,1.9,100,57,18,30.14,29.93,19,4,19,0.00
2012-12-23,21.0,11.6,6.0,16.7,11.1,6.0,100,98,81,30.21,30.00,18,4,18,0.00
2012-12-24,11.0,6.9,2.0,11.0,6.9,2.0,100,100,100,30.45,30.14,17,3,17,0.00
2012-12-25,7.0,0.1,-6.0,7.0,0.1,-6.0,100,100,100,30.56,30.28,9,2,9,0.00
2012-12-26,17.0,4.6,-3.0,14.1,4.5,-3.0,100,100,83,30.28,29.98,7,1,7,0.00
2012-12-27,12.0,7.1,-2.0,12.0,7.1,-2.0,100,100,100,30.22,29.97,13,5,13,0.00
2012-12-28,32.0,12.4,-2.0,20.0,9.3,-2.0,100,89,58,30.21,29.99,6,1,6,0.01
2012-12-29,30.0,21.2,17.0,19.9,17.6,13.3,100,87,65,30.20,30.09,7,2,7,0.00
2012-12-30,23.0,15.3,9.0,15.3,9.9,6.7,100,81,49,30.25,30.01,8,2,8,0.00
2012-12-31,19.0,13.5,8.0,17.5,12.8,8.0,100,97,82,30.26,30.15,5,0,7,0.01
2013-1-1,32.0,22.4,10.0,26.8,17.8,7.7,98,83,59,30.25,30.03,26,4,26,0.00